sensor_id;sensor_type;location;lat;lon;timestamp;P1;durP1;ratioP1;P2;durP2;ratioP2
3949;SDS011;53057;50.988;6.314;2023-07-13T00:01:30;8.77;;;1.63;;
3949;SDS011;53057;50.988;6.314;2023-07-13T00:03:57;20.40;;;2.97;;
3949;SDS011;53057;50.988;6.314;2023-07-13T00:06:25;6.57;;;1.73;;
3949;SDS011;53057;50.988;6.314;2023-07-13T00:08:51;3.83;;;2.00;;
3949;SDS011;53057;50.988;6.314;2023-07-13T00:11:18;2.70;;;1.70;;
3949;SDS011;53057;50.988;6.314;2023-07-13T00:13:45;9.07;;;2.00;;
3949;SDS011;53057;50.988;6.314;2023-07-13T00:16:12;8.23;;;2.07;;
3949;SDS011;53057;50.988;6.314;2023-07-13T00:18:40;3.20;;;2.30;;
3949;SDS011;53057;50.988;6.314;2023-07-13T00:21:07;2.70;;;2.00;;
3949;SDS011;53057;50.988;6.314;2023-07-13T00:23:35;5.13;;;1.97;;
3949;SDS011;53057;50.988;6.314;2023-07-13T00:26:02;6.00;;;2.13;;
3949;SDS011;53057;50.988;6.314;2023-07-13T00:28:29;9.70;;;2.53;;
3949;SDS011;53057;50.988;6.314;2023-07-13T00:30:55;4.03;;;1.87;;
3949;SDS011;53057;50.988;6.314;2023-07-13T00:33:23;6.27;;;2.17;;
3949;SDS011;53057;50.988;6.314;2023-07-13T00:35:50;4.57;;;1.53;;
3949;SDS011;53057;50.988;6.314;2023-07-13T00:38:17;5.70;;;2.00;;
3949;SDS011;53057;50.988;6.314;2023-07-13T00:40:46;13.53;;;3.20;;
3949;SDS011;53057;50.988;6.314;2023-07-13T00:43:13;13.33;;;2.30;;
3949;SDS011;53057;50.988;6.314;2023-07-13T00:48:11;3.30;;;1.60;;
3949;SDS011;53057;50.988;6.314;2023-07-13T00:50:38;4.97;;;1.87;;
3949;SDS011;53057;50.988;6.314;2023-07-13T00:53:06;8.13;;;2.53;;
3949;SDS011;53057;50.988;6.314;2023-07-13T00:55:34;6.23;;;2.10;;
3949;SDS011;53057;50.988;6.314;2023-07-13T00:58:01;13.83;;;2.67;;
3949;SDS011;53057;50.988;6.314;2023-07-13T01:00:28;8.53;;;2.50;;
3949;SDS011;53057;50.988;6.314;2023-07-13T01:02:55;8.33;;;2.40;;
3949;SDS011;53057;50.988;6.314;2023-07-13T01:05:25;5.43;;;1.67;;
3949;SDS011;53057;50.988;6.314;2023-07-13T01:07:53;13.10;;;2.70;;
3949;SDS011;53057;50.988;6.314;2023-07-13T01:10:23;9.03;;;2.50;;
3949;SDS011;53057;50.988;6.314;2023-07-13T01:12:51;2.40;;;1.77;;
3949;SDS011;53057;50.988;6.314;2023-07-13T01:18:00;5.20;;;1.90;;
3949;SDS011;53057;50.988;6.314;2023-07-13T01:20:27;6.97;;;2.33;;
3949;SDS011;53057;50.988;6.314;2023-07-13T01:22:54;9.10;;;2.10;;
3949;SDS011;53057;50.988;6.314;2023-07-13T01:25:21;5.40;;;2.17;;
3949;SDS011;53057;50.988;6.314;2023-07-13T01:27:47;6.37;;;2.37;;
3949;SDS011;53057;50.988;6.314;2023-07-13T01:30:14;10.33;;;3.00;;
3949;SDS011;53057;50.988;6.314;2023-07-13T01:32:41;4.80;;;2.20;;
3949;SDS011;53057;50.988;6.314;2023-07-13T01:35:08;6.20;;;2.40;;
3949;SDS011;53057;50.988;6.314;2023-07-13T01:37:36;6.13;;;2.97;;
3949;SDS011;53057;50.988;6.314;2023-07-13T01:40:03;3.27;;;1.97;;
3949;SDS011;53057;50.988;6.314;2023-07-13T01:42:30;8.60;;;2.37;;
3949;SDS011;53057;50.988;6.314;2023-07-13T01:44:57;5.77;;;1.97;;
3949;SDS011;53057;50.988;6.314;2023-07-13T01:47:24;4.80;;;2.17;;
3949;SDS011;53057;50.988;6.314;2023-07-13T01:49:52;14.47;;;3.07;;
3949;SDS011;53057;50.988;6.314;2023-07-13T01:52:19;9.67;;;1.93;;
3949;SDS011;53057;50.988;6.314;2023-07-13T01:54:46;9.30;;;2.90;;
3949;SDS011;53057;50.988;6.314;2023-07-13T01:57:16;6.30;;;2.17;;
3949;SDS011;53057;50.988;6.314;2023-07-13T01:59:42;7.63;;;3.00;;
3949;SDS011;53057;50.988;6.314;2023-07-13T02:02:09;13.20;;;2.80;;
3949;SDS011;53057;50.988;6.314;2023-07-13T02:04:36;7.03;;;2.40;;
3949;SDS011;53057;50.988;6.314;2023-07-13T02:07:02;10.50;;;2.47;;
3949;SDS011;53057;50.988;6.314;2023-07-13T02:09:29;11.40;;;2.03;;
3949;SDS011;53057;50.988;6.314;2023-07-13T02:11:57;12.90;;;2.97;;
3949;SDS011;53057;50.988;6.314;2023-07-13T02:14:29;4.27;;;1.70;;
3949;SDS011;53057;50.988;6.314;2023-07-13T02:16:56;11.33;;;3.57;;
3949;SDS011;53057;50.988;6.314;2023-07-13T02:19:23;5.30;;;2.77;;
3949;SDS011;53057;50.988;6.314;2023-07-13T02:21:50;5.80;;;2.33;;
3949;SDS011;53057;50.988;6.314;2023-07-13T02:24:17;5.67;;;2.00;;
3949;SDS011;53057;50.988;6.314;2023-07-13T02:26:45;11.13;;;3.23;;
3949;SDS011;53057;50.988;6.314;2023-07-13T02:29:13;7.33;;;2.37;;
3949;SDS011;53057;50.988;6.314;2023-07-13T02:31:44;9.00;;;2.70;;
3949;SDS011;53057;50.988;6.314;2023-07-13T02:34:11;13.43;;;2.73;;
3949;SDS011;53057;50.988;6.314;2023-07-13T02:36:37;7.53;;;2.33;;
3949;SDS011;53057;50.988;6.314;2023-07-13T02:39:05;11.37;;;3.73;;
3949;SDS011;53057;50.988;6.314;2023-07-13T02:41:35;3.83;;;2.17;;
3949;SDS011;53057;50.988;6.314;2023-07-13T02:44:01;9.50;;;2.50;;
3949;SDS011;53057;50.988;6.314;2023-07-13T02:46:32;9.57;;;3.03;;
3949;SDS011;53057;50.988;6.314;2023-07-13T02:48:59;10.13;;;2.80;;
3949;SDS011;53057;50.988;6.314;2023-07-13T02:51:27;10.13;;;2.93;;
3949;SDS011;53057;50.988;6.314;2023-07-13T02:53:54;4.30;;;2.97;;
3949;SDS011;53057;50.988;6.314;2023-07-13T02:56:25;7.73;;;2.63;;
3949;SDS011;53057;50.988;6.314;2023-07-13T02:58:52;6.50;;;3.07;;
3949;SDS011;53057;50.988;6.314;2023-07-13T03:01:19;8.57;;;3.13;;
3949;SDS011;53057;50.988;6.314;2023-07-13T03:03:48;11.10;;;2.50;;
3949;SDS011;53057;50.988;6.314;2023-07-13T03:06:16;5.70;;;2.23;;
3949;SDS011;53057;50.988;6.314;2023-07-13T03:08:47;9.23;;;2.80;;
3949;SDS011;53057;50.988;6.314;2023-07-13T03:11:16;7.23;;;3.13;;
3949;SDS011;53057;50.988;6.314;2023-07-13T03:13:45;7.43;;;2.50;;
3949;SDS011;53057;50.988;6.314;2023-07-13T03:16:13;11.87;;;2.67;;
3949;SDS011;53057;50.988;6.314;2023-07-13T03:18:47;6.73;;;2.77;;
3949;SDS011;53057;50.988;6.314;2023-07-13T03:21:14;10.77;;;2.60;;
3949;SDS011;53057;50.988;6.314;2023-07-13T03:23:42;9.10;;;3.00;;
3949;SDS011;53057;50.988;6.314;2023-07-13T03:26:10;8.67;;;2.57;;
3949;SDS011;53057;50.988;6.314;2023-07-13T03:28:40;4.47;;;2.57;;
3949;SDS011;53057;50.988;6.314;2023-07-13T03:31:11;7.63;;;4.50;;
3949;SDS011;53057;50.988;6.314;2023-07-13T03:33:38;5.57;;;2.30;;
3949;SDS011;53057;50.988;6.314;2023-07-13T03:36:06;7.00;;;3.10;;
3949;SDS011;53057;50.988;6.314;2023-07-13T03:38:33;8.77;;;2.10;;
3949;SDS011;53057;50.988;6.314;2023-07-13T03:41:01;5.77;;;2.03;;
3949;SDS011;53057;50.988;6.314;2023-07-13T03:43:29;11.93;;;2.57;;
3949;SDS011;53057;50.988;6.314;2023-07-13T03:45:55;6.43;;;2.60;;
3949;SDS011;53057;50.988;6.314;2023-07-13T03:48:22;7.00;;;3.10;;
3949;SDS011;53057;50.988;6.314;2023-07-13T03:50:49;6.00;;;3.80;;
3949;SDS011;53057;50.988;6.314;2023-07-13T03:53:16;8.70;;;3.27;;
3949;SDS011;53057;50.988;6.314;2023-07-13T03:55:43;11.30;;;3.33;;
3949;SDS011;53057;50.988;6.314;2023-07-13T03:58:29;6.00;;;3.17;;
3949;SDS011;53057;50.988;6.314;2023-07-13T04:01:03;7.33;;;2.97;;
3949;SDS011;53057;50.988;6.314;2023-07-13T04:03:29;7.83;;;2.77;;
3949;SDS011;53057;50.988;6.314;2023-07-13T04:06:04;18.53;;;3.53;;
3949;SDS011;53057;50.988;6.314;2023-07-13T04:08:32;13.47;;;3.43;;
3949;SDS011;53057;50.988;6.314;2023-07-13T04:10:59;15.07;;;3.37;;
3949;SDS011;53057;50.988;6.314;2023-07-13T04:13:26;5.70;;;3.07;;
3949;SDS011;53057;50.988;6.314;2023-07-13T04:15:53;11.57;;;3.50;;
3949;SDS011;53057;50.988;6.314;2023-07-13T04:18:20;5.60;;;2.80;;
3949;SDS011;53057;50.988;6.314;2023-07-13T04:20:47;5.53;;;2.90;;
3949;SDS011;53057;50.988;6.314;2023-07-13T04:23:14;14.43;;;3.20;;
3949;SDS011;53057;50.988;6.314;2023-07-13T04:25:47;6.53;;;2.73;;
3949;SDS011;53057;50.988;6.314;2023-07-13T04:28:16;11.03;;;3.20;;
3949;SDS011;53057;50.988;6.314;2023-07-13T04:30:44;10.00;;;3.00;;
3949;SDS011;53057;50.988;6.314;2023-07-13T04:33:10;5.40;;;2.50;;
3949;SDS011;53057;50.988;6.314;2023-07-13T04:35:37;12.40;;;3.57;;
3949;SDS011;53057;50.988;6.314;2023-07-13T04:38:04;17.20;;;4.30;;
3949;SDS011;53057;50.988;6.314;2023-07-13T04:40:30;11.53;;;3.00;;
3949;SDS011;53057;50.988;6.314;2023-07-13T04:42:57;10.03;;;2.93;;
3949;SDS011;53057;50.988;6.314;2023-07-13T04:45:24;15.23;;;2.70;;
3949;SDS011;53057;50.988;6.314;2023-07-13T04:47:50;15.10;;;2.70;;
3949;SDS011;53057;50.988;6.314;2023-07-13T04:50:17;8.63;;;3.17;;
3949;SDS011;53057;50.988;6.314;2023-07-13T04:52:47;6.10;;;2.97;;
3949;SDS011;53057;50.988;6.314;2023-07-13T04:55:14;9.37;;;2.87;;
3949;SDS011;53057;50.988;6.314;2023-07-13T04:57:41;14.13;;;2.90;;
3949;SDS011;53057;50.988;6.314;2023-07-13T05:00:07;7.33;;;2.53;;
3949;SDS011;53057;50.988;6.314;2023-07-13T05:02:34;5.50;;;2.80;;
3949;SDS011;53057;50.988;6.314;2023-07-13T05:05:01;15.67;;;3.83;;
3949;SDS011;53057;50.988;6.314;2023-07-13T05:07:30;6.77;;;2.40;;
3949;SDS011;53057;50.988;6.314;2023-07-13T05:09:59;11.77;;;4.20;;
3949;SDS011;53057;50.988;6.314;2023-07-13T05:12:26;12.73;;;3.27;;
3949;SDS011;53057;50.988;6.314;2023-07-13T05:14:53;8.27;;;3.23;;
3949;SDS011;53057;50.988;6.314;2023-07-13T05:17:19;10.53;;;2.43;;
3949;SDS011;53057;50.988;6.314;2023-07-13T05:19:46;15.70;;;3.50;;
3949;SDS011;53057;50.988;6.314;2023-07-13T05:22:13;9.43;;;2.73;;
3949;SDS011;53057;50.988;6.314;2023-07-13T05:24:40;7.13;;;3.33;;
3949;SDS011;53057;50.988;6.314;2023-07-13T05:27:07;10.93;;;2.90;;
3949;SDS011;53057;50.988;6.314;2023-07-13T05:29:33;7.77;;;3.53;;
3949;SDS011;53057;50.988;6.314;2023-07-13T05:32:00;10.03;;;3.57;;
3949;SDS011;53057;50.988;6.314;2023-07-13T05:34:27;12.07;;;2.70;;
3949;SDS011;53057;50.988;6.314;2023-07-13T05:36:54;7.97;;;2.80;;
3949;SDS011;53057;50.988;6.314;2023-07-13T05:39:20;11.00;;;2.70;;
3949;SDS011;53057;50.988;6.314;2023-07-13T05:41:47;7.87;;;2.80;;
3949;SDS011;53057;50.988;6.314;2023-07-13T05:44:14;9.57;;;3.23;;
3949;SDS011;53057;50.988;6.314;2023-07-13T05:46:41;7.60;;;3.37;;
3949;SDS011;53057;50.988;6.314;2023-07-13T05:49:07;7.00;;;4.40;;
3949;SDS011;53057;50.988;6.314;2023-07-13T05:51:34;9.80;;;3.27;;
3949;SDS011;53057;50.988;6.314;2023-07-13T05:54:01;8.90;;;2.90;;
3949;SDS011;53057;50.988;6.314;2023-07-13T05:56:28;13.43;;;3.10;;
3949;SDS011;53057;50.988;6.314;2023-07-13T05:58:54;9.77;;;3.20;;
3949;SDS011;53057;50.988;6.314;2023-07-13T06:01:21;10.33;;;2.60;;
3949;SDS011;53057;50.988;6.314;2023-07-13T06:03:49;5.20;;;2.30;;
3949;SDS011;53057;50.988;6.314;2023-07-13T06:06:16;6.00;;;2.73;;
3949;SDS011;53057;50.988;6.314;2023-07-13T06:08:43;5.97;;;3.03;;
3949;SDS011;53057;50.988;6.314;2023-07-13T06:13:37;8.00;;;3.30;;
3949;SDS011;53057;50.988;6.314;2023-07-13T06:16:04;11.43;;;3.63;;
3949;SDS011;53057;50.988;6.314;2023-07-13T06:18:31;11.27;;;3.80;;
3949;SDS011;53057;50.988;6.314;2023-07-13T06:20:58;14.13;;;2.97;;
3949;SDS011;53057;50.988;6.314;2023-07-13T06:23:25;11.27;;;3.97;;
3949;SDS011;53057;50.988;6.314;2023-07-13T06:25:52;7.47;;;3.33;;
3949;SDS011;53057;50.988;6.314;2023-07-13T06:28:19;15.70;;;3.60;;
3949;SDS011;53057;50.988;6.314;2023-07-13T06:30:45;11.67;;;3.50;;
3949;SDS011;53057;50.988;6.314;2023-07-13T06:33:12;15.40;;;3.87;;
3949;SDS011;53057;50.988;6.314;2023-07-13T06:35:39;13.40;;;4.77;;
3949;SDS011;53057;50.988;6.314;2023-07-13T06:38:05;8.43;;;3.77;;
3949;SDS011;53057;50.988;6.314;2023-07-13T06:40:32;8.47;;;2.83;;
3949;SDS011;53057;50.988;6.314;2023-07-13T06:42:59;12.43;;;3.60;;
3949;SDS011;53057;50.988;6.314;2023-07-13T06:45:25;13.93;;;3.63;;
3949;SDS011;53057;50.988;6.314;2023-07-13T06:47:52;6.70;;;2.67;;
3949;SDS011;53057;50.988;6.314;2023-07-13T06:50:19;14.20;;;4.37;;
3949;SDS011;53057;50.988;6.314;2023-07-13T06:52:46;24.70;;;5.23;;
3949;SDS011;53057;50.988;6.314;2023-07-13T06:55:12;15.53;;;3.97;;
3949;SDS011;53057;50.988;6.314;2023-07-13T06:57:39;8.20;;;3.50;;
3949;SDS011;53057;50.988;6.314;2023-07-13T07:00:06;17.93;;;3.50;;
3949;SDS011;53057;50.988;6.314;2023-07-13T07:02:33;10.60;;;3.40;;
3949;SDS011;53057;50.988;6.314;2023-07-13T07:05:00;11.10;;;3.20;;
3949;SDS011;53057;50.988;6.314;2023-07-13T07:07:27;15.20;;;4.07;;
3949;SDS011;53057;50.988;6.314;2023-07-13T07:09:54;26.73;;;5.07;;
3949;SDS011;53057;50.988;6.314;2023-07-13T07:12:21;15.17;;;4.77;;
3949;SDS011;53057;50.988;6.314;2023-07-13T07:14:47;9.40;;;4.43;;
3949;SDS011;53057;50.988;6.314;2023-07-13T07:17:14;27.03;;;4.80;;
3949;SDS011;53057;50.988;6.314;2023-07-13T07:19:41;17.07;;;4.23;;
3949;SDS011;53057;50.988;6.314;2023-07-13T07:22:08;14.80;;;4.40;;
3949;SDS011;53057;50.988;6.314;2023-07-13T07:24:34;20.97;;;4.73;;
3949;SDS011;53057;50.988;6.314;2023-07-13T07:27:01;7.60;;;3.57;;
3949;SDS011;53057;50.988;6.314;2023-07-13T07:29:30;23.80;;;5.33;;
3949;SDS011;53057;50.988;6.314;2023-07-13T07:32:00;13.20;;;4.20;;
3949;SDS011;53057;50.988;6.314;2023-07-13T07:34:43;10.00;;;3.57;;
3949;SDS011;53057;50.988;6.314;2023-07-13T07:37:10;13.07;;;3.47;;
3949;SDS011;53057;50.988;6.314;2023-07-13T07:39:40;19.80;;;4.73;;
3949;SDS011;53057;50.988;6.314;2023-07-13T07:42:12;15.90;;;3.80;;
3949;SDS011;53057;50.988;6.314;2023-07-13T07:44:40;13.30;;;5.03;;
3949;SDS011;53057;50.988;6.314;2023-07-13T07:47:07;14.20;;;5.17;;
3949;SDS011;53057;50.988;6.314;2023-07-13T07:49:34;13.17;;;2.80;;
3949;SDS011;53057;50.988;6.314;2023-07-13T07:52:01;14.13;;;4.23;;
3949;SDS011;53057;50.988;6.314;2023-07-13T07:54:28;16.97;;;4.63;;
3949;SDS011;53057;50.988;6.314;2023-07-13T07:57:15;10.80;;;3.90;;
3949;SDS011;53057;50.988;6.314;2023-07-13T07:59:44;11.70;;;4.03;;
3949;SDS011;53057;50.988;6.314;2023-07-13T08:02:14;12.43;;;3.57;;
3949;SDS011;53057;50.988;6.314;2023-07-13T08:05:01;10.83;;;3.33;;
3949;SDS011;53057;50.988;6.314;2023-07-13T08:07:30;10.83;;;3.43;;
3949;SDS011;53057;50.988;6.314;2023-07-13T08:09:58;14.80;;;4.23;;
3949;SDS011;53057;50.988;6.314;2023-07-13T08:12:25;11.10;;;4.00;;
3949;SDS011;53057;50.988;6.314;2023-07-13T08:14:55;10.80;;;3.40;;
3949;SDS011;53057;50.988;6.314;2023-07-13T08:17:24;12.70;;;3.80;;
3949;SDS011;53057;50.988;6.314;2023-07-13T08:19:51;13.17;;;4.13;;
3949;SDS011;53057;50.988;6.314;2023-07-13T08:22:18;13.43;;;3.17;;
3949;SDS011;53057;50.988;6.314;2023-07-13T08:24:45;5.40;;;2.70;;
3949;SDS011;53057;50.988;6.314;2023-07-13T08:27:11;11.70;;;3.30;;
3949;SDS011;53057;50.988;6.314;2023-07-13T08:29:39;8.70;;;2.63;;
3949;SDS011;53057;50.988;6.314;2023-07-13T08:32:06;6.93;;;3.47;;
3949;SDS011;53057;50.988;6.314;2023-07-13T08:34:36;8.57;;;4.00;;
3949;SDS011;53057;50.988;6.314;2023-07-13T08:37:03;14.63;;;3.17;;
3949;SDS011;53057;50.988;6.314;2023-07-13T08:39:30;12.30;;;4.30;;
3949;SDS011;53057;50.988;6.314;2023-07-13T08:45:06;6.67;;;3.27;;
3949;SDS011;53057;50.988;6.314;2023-07-13T08:47:38;13.50;;;3.20;;
3949;SDS011;53057;50.988;6.314;2023-07-13T08:50:08;5.03;;;2.43;;
3949;SDS011;53057;50.988;6.314;2023-07-13T08:52:37;8.33;;;3.53;;
3949;SDS011;53057;50.988;6.314;2023-07-13T08:55:12;8.30;;;3.60;;
3949;SDS011;53057;50.988;6.314;2023-07-13T08:57:40;9.67;;;3.43;;
3949;SDS011;53057;50.988;6.314;2023-07-13T09:00:17;14.03;;;3.63;;
3949;SDS011;53057;50.988;6.314;2023-07-13T09:02:49;13.23;;;3.40;;
3949;SDS011;53057;50.988;6.314;2023-07-13T09:05:25;13.60;;;4.40;;
3949;SDS011;53057;50.988;6.314;2023-07-13T09:10:36;15.47;;;2.60;;
3949;SDS011;53057;50.988;6.314;2023-07-13T09:13:19;22.13;;;3.47;;
3949;SDS011;53057;50.988;6.314;2023-07-13T09:15:49;6.97;;;2.90;;
3949;SDS011;53057;50.988;6.314;2023-07-13T09:18:23;8.10;;;2.50;;
3949;SDS011;53057;50.988;6.314;2023-07-13T09:20:54;5.60;;;2.80;;
3949;SDS011;53057;50.988;6.314;2023-07-13T09:23:24;9.37;;;3.50;;
3949;SDS011;53057;50.988;6.314;2023-07-13T09:26:03;14.13;;;3.97;;
3949;SDS011;53057;50.988;6.314;2023-07-13T09:28:38;8.77;;;2.57;;
3949;SDS011;53057;50.988;6.314;2023-07-13T09:33:32;12.17;;;2.77;;
3949;SDS011;53057;50.988;6.314;2023-07-13T09:36:21;7.80;;;2.87;;
3949;SDS011;53057;50.988;6.314;2023-07-13T09:38:53;3.70;;;1.90;;
3949;SDS011;53057;50.988;6.314;2023-07-13T09:41:29;16.00;;;4.20;;
3949;SDS011;53057;50.988;6.314;2023-07-13T09:44:08;8.53;;;3.40;;
3949;SDS011;53057;50.988;6.314;2023-07-13T09:46:39;9.80;;;2.40;;
3949;SDS011;53057;50.988;6.314;2023-07-13T09:49:07;7.03;;;2.70;;
3949;SDS011;53057;50.988;6.314;2023-07-13T09:51:34;6.23;;;2.53;;
3949;SDS011;53057;50.988;6.314;2023-07-13T09:54:04;6.23;;;2.63;;
3949;SDS011;53057;50.988;6.314;2023-07-13T09:56:31;17.47;;;3.43;;
3949;SDS011;53057;50.988;6.314;2023-07-13T09:58:59;12.07;;;3.67;;
3949;SDS011;53057;50.988;6.314;2023-07-13T10:01:38;7.93;;;2.23;;
3949;SDS011;53057;50.988;6.314;2023-07-13T10:04:12;3.20;;;2.27;;
3949;SDS011;53057;50.988;6.314;2023-07-13T10:06:41;6.73;;;2.23;;
3949;SDS011;53057;50.988;6.314;2023-07-13T10:09:09;9.70;;;2.63;;
3949;SDS011;53057;50.988;6.314;2023-07-13T10:11:36;9.60;;;2.70;;
3949;SDS011;53057;50.988;6.314;2023-07-13T10:14:11;7.20;;;2.70;;
3949;SDS011;53057;50.988;6.314;2023-07-13T10:16:41;3.13;;;1.93;;
3949;SDS011;53057;50.988;6.314;2023-07-13T10:19:21;3.30;;;2.00;;
3949;SDS011;53057;50.988;6.314;2023-07-13T10:21:58;6.00;;;2.73;;
3949;SDS011;53057;50.988;6.314;2023-07-13T10:24:27;5.20;;;3.00;;
3949;SDS011;53057;50.988;6.314;2023-07-13T10:27:05;5.27;;;1.73;;
3949;SDS011;53057;50.988;6.314;2023-07-13T10:29:39;6.07;;;1.97;;
3949;SDS011;53057;50.988;6.314;2023-07-13T10:32:09;5.83;;;2.53;;
3949;SDS011;53057;50.988;6.314;2023-07-13T10:34:36;7.47;;;3.00;;
3949;SDS011;53057;50.988;6.314;2023-07-13T10:37:03;4.03;;;1.40;;
3949;SDS011;53057;50.988;6.314;2023-07-13T10:39:31;11.90;;;3.00;;
3949;SDS011;53057;50.988;6.314;2023-07-13T10:42:01;5.90;;;2.70;;
3949;SDS011;53057;50.988;6.314;2023-07-13T10:44:31;10.50;;;2.93;;
3949;SDS011;53057;50.988;6.314;2023-07-13T10:46:59;4.10;;;1.67;;
3949;SDS011;53057;50.988;6.314;2023-07-13T10:49:27;9.00;;;2.30;;
3949;SDS011;53057;50.988;6.314;2023-07-13T10:51:54;6.07;;;2.20;;
3949;SDS011;53057;50.988;6.314;2023-07-13T10:54:26;5.17;;;1.97;;
3949;SDS011;53057;50.988;6.314;2023-07-13T10:59:41;9.23;;;2.30;;
3949;SDS011;53057;50.988;6.314;2023-07-13T11:04:45;5.93;;;1.87;;
3949;SDS011;53057;50.988;6.314;2023-07-13T11:07:24;11.13;;;2.27;;
3949;SDS011;53057;50.988;6.314;2023-07-13T11:09:52;6.67;;;1.40;;
3949;SDS011;53057;50.988;6.314;2023-07-13T11:19:54;3.20;;;1.43;;
3949;SDS011;53057;50.988;6.314;2023-07-13T11:22:41;2.80;;;1.63;;
3949;SDS011;53057;50.988;6.314;2023-07-13T11:27:49;7.70;;;1.90;;
3949;SDS011;53057;50.988;6.314;2023-07-13T11:32:51;4.20;;;1.97;;
3949;SDS011;53057;50.988;6.314;2023-07-13T11:35:23;5.00;;;1.50;;
3949;SDS011;53057;50.988;6.314;2023-07-13T11:37:52;3.43;;;1.90;;
3949;SDS011;53057;50.988;6.314;2023-07-13T11:40:21;4.30;;;1.50;;
3949;SDS011;53057;50.988;6.314;2023-07-13T11:42:50;6.87;;;2.87;;
3949;SDS011;53057;50.988;6.314;2023-07-13T11:45:22;3.83;;;1.60;;
3949;SDS011;53057;50.988;6.314;2023-07-13T11:48:04;7.43;;;1.60;;
3949;SDS011;53057;50.988;6.314;2023-07-13T11:50:30;2.07;;;1.17;;
3949;SDS011;53057;50.988;6.314;2023-07-13T11:52:57;5.30;;;1.50;;
3949;SDS011;53057;50.988;6.314;2023-07-13T11:55:25;9.03;;;1.93;;
3949;SDS011;53057;50.988;6.314;2023-07-13T12:00:21;4.73;;;1.43;;
3949;SDS011;53057;50.988;6.314;2023-07-13T12:02:49;5.27;;;2.03;;
3949;SDS011;53057;50.988;6.314;2023-07-13T12:05:17;5.77;;;1.67;;
3949;SDS011;53057;50.988;6.314;2023-07-13T12:07:44;4.70;;;1.53;;
3949;SDS011;53057;50.988;6.314;2023-07-13T12:10:21;8.03;;;1.80;;
3949;SDS011;53057;50.988;6.314;2023-07-13T12:12:52;10.43;;;1.80;;
3949;SDS011;53057;50.988;6.314;2023-07-13T12:15:20;4.70;;;1.93;;
3949;SDS011;53057;50.988;6.314;2023-07-13T12:17:48;4.67;;;1.40;;
3949;SDS011;53057;50.988;6.314;2023-07-13T12:20:20;8.97;;;3.40;;
3949;SDS011;53057;50.988;6.314;2023-07-13T12:22:48;6.07;;;2.10;;
3949;SDS011;53057;50.988;6.314;2023-07-13T12:25:15;1.83;;;1.63;;
3949;SDS011;53057;50.988;6.314;2023-07-13T12:27:50;5.80;;;1.47;;
3949;SDS011;53057;50.988;6.314;2023-07-13T12:35:29;2.93;;;1.50;;
3949;SDS011;53057;50.988;6.314;2023-07-13T12:37:57;5.20;;;1.70;;
3949;SDS011;53057;50.988;6.314;2023-07-13T12:40:33;2.27;;;1.50;;
3949;SDS011;53057;50.988;6.314;2023-07-13T12:43:03;2.50;;;1.57;;
3949;SDS011;53057;50.988;6.314;2023-07-13T12:45:33;2.17;;;1.50;;
3949;SDS011;53057;50.988;6.314;2023-07-13T12:48:04;3.50;;;1.60;;
3949;SDS011;53057;50.988;6.314;2023-07-13T12:50:39;5.70;;;1.53;;
3949;SDS011;53057;50.988;6.314;2023-07-13T12:53:14;3.47;;;1.00;;
3949;SDS011;53057;50.988;6.314;2023-07-13T12:55:52;4.70;;;1.63;;
3949;SDS011;53057;50.988;6.314;2023-07-13T12:58:27;6.03;;;1.20;;
3949;SDS011;53057;50.988;6.314;2023-07-13T13:00:54;3.10;;;1.60;;
3949;SDS011;53057;50.988;6.314;2023-07-13T13:03:35;14.20;;;1.83;;
3949;SDS011;53057;50.988;6.314;2023-07-13T13:06:04;3.33;;;1.43;;
3949;SDS011;53057;50.988;6.314;2023-07-13T13:08:32;2.60;;;1.40;;
3949;SDS011;53057;50.988;6.314;2023-07-13T13:10:59;5.70;;;3.00;;
3949;SDS011;53057;50.988;6.314;2023-07-13T13:13:26;7.80;;;1.40;;
3949;SDS011;53057;50.988;6.314;2023-07-13T13:15:53;5.97;;;1.50;;
3949;SDS011;53057;50.988;6.314;2023-07-13T13:18:22;4.80;;;1.50;;
3949;SDS011;53057;50.988;6.314;2023-07-13T13:20:49;6.90;;;1.60;;
3949;SDS011;53057;50.988;6.314;2023-07-13T13:23:17;1.97;;;1.10;;
3949;SDS011;53057;50.988;6.314;2023-07-13T13:25:49;5.33;;;2.07;;
3949;SDS011;53057;50.988;6.314;2023-07-13T13:28:19;4.43;;;1.77;;
3949;SDS011;53057;50.988;6.314;2023-07-13T13:30:47;6.93;;;1.80;;
3949;SDS011;53057;50.988;6.314;2023-07-13T13:33:15;4.10;;;1.10;;
3949;SDS011;53057;50.988;6.314;2023-07-13T13:35:43;3.60;;;1.50;;
3949;SDS011;53057;50.988;6.314;2023-07-13T13:38:11;3.07;;;1.73;;
3949;SDS011;53057;50.988;6.314;2023-07-13T13:40:38;5.20;;;1.63;;
3949;SDS011;53057;50.988;6.314;2023-07-13T13:43:13;4.07;;;1.70;;
3949;SDS011;53057;50.988;6.314;2023-07-13T13:45:41;3.67;;;1.83;;
3949;SDS011;53057;50.988;6.314;2023-07-13T13:48:13;2.70;;;1.70;;
3949;SDS011;53057;50.988;6.314;2023-07-13T13:50:40;6.83;;;1.70;;
3949;SDS011;53057;50.988;6.314;2023-07-13T13:53:09;2.30;;;1.13;;
3949;SDS011;53057;50.988;6.314;2023-07-13T13:55:36;2.40;;;1.20;;
3949;SDS011;53057;50.988;6.314;2023-07-13T13:58:03;2.30;;;1.60;;
3949;SDS011;53057;50.988;6.314;2023-07-13T14:00:29;3.27;;;1.73;;
3949;SDS011;53057;50.988;6.314;2023-07-13T14:02:56;2.53;;;1.33;;
3949;SDS011;53057;50.988;6.314;2023-07-13T14:05:24;2.93;;;1.40;;
3949;SDS011;53057;50.988;6.314;2023-07-13T14:07:54;4.60;;;1.80;;
3949;SDS011;53057;50.988;6.314;2023-07-13T14:10:21;9.30;;;1.57;;
3949;SDS011;53057;50.988;6.314;2023-07-13T14:12:50;6.37;;;1.67;;
3949;SDS011;53057;50.988;6.314;2023-07-13T14:15:19;6.33;;;1.20;;
3949;SDS011;53057;50.988;6.314;2023-07-13T14:17:46;3.77;;;1.40;;
3949;SDS011;53057;50.988;6.314;2023-07-13T14:20:20;4.20;;;2.17;;
3949;SDS011;53057;50.988;6.314;2023-07-13T14:22:47;2.03;;;1.10;;
3949;SDS011;53057;50.988;6.314;2023-07-13T14:25:19;6.53;;;1.97;;
3949;SDS011;53057;50.988;6.314;2023-07-13T14:27:46;4.53;;;1.40;;
3949;SDS011;53057;50.988;6.314;2023-07-13T14:30:15;2.33;;;1.33;;
3949;SDS011;53057;50.988;6.314;2023-07-13T14:32:42;4.57;;;1.77;;
3949;SDS011;53057;50.988;6.314;2023-07-13T14:35:11;5.40;;;1.63;;
3949;SDS011;53057;50.988;6.314;2023-07-13T14:37:39;2.47;;;1.40;;
3949;SDS011;53057;50.988;6.314;2023-07-13T14:40:15;2.50;;;1.40;;
3949;SDS011;53057;50.988;6.314;2023-07-13T14:42:43;6.90;;;1.80;;
3949;SDS011;53057;50.988;6.314;2023-07-13T14:45:14;3.77;;;1.50;;
3949;SDS011;53057;50.988;6.314;2023-07-13T14:47:42;5.23;;;1.37;;
3949;SDS011;53057;50.988;6.314;2023-07-13T14:50:16;4.03;;;1.40;;
3949;SDS011;53057;50.988;6.314;2023-07-13T14:52:44;14.23;;;2.10;;
3949;SDS011;53057;50.988;6.314;2023-07-13T14:55:12;3.20;;;1.70;;
3949;SDS011;53057;50.988;6.314;2023-07-13T14:57:39;8.50;;;2.23;;
3949;SDS011;53057;50.988;6.314;2023-07-13T15:02:39;6.53;;;2.67;;
3949;SDS011;53057;50.988;6.314;2023-07-13T15:05:16;5.97;;;2.20;;
3949;SDS011;53057;50.988;6.314;2023-07-13T15:07:43;9.67;;;2.07;;
3949;SDS011;53057;50.988;6.314;2023-07-13T15:10:17;7.37;;;2.33;;
3949;SDS011;53057;50.988;6.314;2023-07-13T15:12:43;2.40;;;1.30;;
3949;SDS011;53057;50.988;6.314;2023-07-13T15:15:10;3.53;;;1.90;;
3949;SDS011;53057;50.988;6.314;2023-07-13T15:17:38;8.20;;;2.63;;
3949;SDS011;53057;50.988;6.314;2023-07-13T15:20:06;4.80;;;2.00;;
3949;SDS011;53057;50.988;6.314;2023-07-13T15:22:38;12.40;;;3.00;;
3949;SDS011;53057;50.988;6.314;2023-07-13T15:25:07;3.90;;;1.90;;
3949;SDS011;53057;50.988;6.314;2023-07-13T15:27:38;4.70;;;2.73;;
3949;SDS011;53057;50.988;6.314;2023-07-13T15:30:04;6.40;;;2.03;;
3949;SDS011;53057;50.988;6.314;2023-07-13T15:32:32;5.80;;;2.30;;
3949;SDS011;53057;50.988;6.314;2023-07-13T15:34:58;7.57;;;2.30;;
3949;SDS011;53057;50.988;6.314;2023-07-13T15:37:25;3.87;;;2.03;;
3949;SDS011;53057;50.988;6.314;2023-07-13T15:39:52;5.13;;;1.63;;
3949;SDS011;53057;50.988;6.314;2023-07-13T15:42:19;3.67;;;1.70;;
3949;SDS011;53057;50.988;6.314;2023-07-13T15:44:46;9.77;;;1.57;;
3949;SDS011;53057;50.988;6.314;2023-07-13T15:47:13;6.27;;;1.90;;
3949;SDS011;53057;50.988;6.314;2023-07-13T15:49:41;5.40;;;1.57;;
3949;SDS011;53057;50.988;6.314;2023-07-13T15:52:15;6.43;;;2.20;;